Time;durP1;ratioP1;P1;durP2;ratioP2;P2;SDS_P1;SDS_P2;PMS_P1;PMS_P2;Temp;Humidity;BMP_temperature;BMP_pressure;BME280_temperature;BME280_humidity;BME280_pressure;Samples;Min_cycle;Max_cycle;Signal;HPM_P1;HPM_P2
2021/05/19 00:00:08;;;;;;;15.93;9.05;;;;;;;13.89;100.00;98525.22;4326461;81;28548;-81
2021/05/19 00:06:12;;;;;;;15.30;9.00;;;;;;;13.91;100.00;98526.32;4340477;81;28512;-81
2021/05/19 00:12:13;;;;;;;15.43;8.13;;;;;;;13.84;100.00;98529.28;4320345;80;28554;-80
2021/05/19 00:18:15;;;;;;;16.85;8.20;;;;;;;13.84;100.00;98527.09;4247791;81;28600;-80
2021/05/19 00:24:16;;;;;;;13.98;8.08;;;;;;;13.69;100.00;98517.05;4207631;83;28530;-81
2021/05/19 00:30:20;;;;;;;16.57;8.73;;;;;;;13.63;100.00;98509.47;4206389;83;28537;-83
2021/05/19 00:36:22;;;;;;;13.88;8.68;;;;;;;13.72;100.00;98513.84;4216682;82;28510;-80
2021/05/19 00:42:23;;;;;;;15.08;9.08;;;;;;;13.41;100.00;98515.83;4256625;83;28687;-80
2021/05/19 00:48:24;;;;;;;12.35;7.78;;;;;;;13.35;100.00;98514.98;4246314;83;28558;-81
2021/05/19 00:54:26;;;;;;;14.03;8.03;;;;;;;13.35;100.00;98506.09;4242262;83;28549;-81
2021/05/19 01:00:28;;;;;;;12.03;7.45;;;;;;;13.24;100.00;98511.44;4257298;83;28658;-81
2021/05/19 01:06:58;;;;;;;15.50;8.98;;;;;;;13.03;100.00;98510.48;4252512;83;28518;-81
2021/05/19 01:12:55;;;;;;;14.05;9.50;;;;;;;12.99;100.00;98513.45;4255492;82;28571;-82
2021/05/19 01:18:57;;;;;;;14.15;8.38;;;;;;;12.89;100.00;98520.13;4262184;82;28594;-82
2021/05/19 01:25:00;;;;;;;13.10;8.38;;;;;;;12.83;100.00;98520.63;4276156;82;28622;-80
2021/05/19 01:31:03;;;;;;;16.17;8.63;;;;;;;12.78;100.00;98523.27;4258591;82;28584;-81
2021/05/19 01:37:09;;;;;;;14.65;9.93;;;;;;;12.70;100.00;98521.86;4253237;82;28520;-80
2021/05/19 01:43:11;;;;;;;15.00;8.95;;;;;;;12.67;100.00;98527.23;4278686;82;28574;-81
2021/05/19 01:49:22;;;;;;;15.98;10.20;;;;;;;12.49;100.00;98530.30;4243847;82;28492;-80
2021/05/19 01:55:25;;;;;;;14.13;8.98;;;;;;;12.14;100.00;98535.13;4274658;82;28571;-81
2021/05/19 02:01:27;;;;;;;15.35;9.55;;;;;;;11.85;100.00;98538.01;4260480;82;29014;-80
2021/05/19 02:07:29;;;;;;;16.85;9.08;;;;;;;11.96;100.00;98535.70;4267354;82;28523;-79
2021/05/19 02:13:31;;;;;;;15.28;9.08;;;;;;;12.02;100.00;98540.64;4233529;82;28502;-80
2021/05/19 02:19:34;;;;;;;14.55;8.88;;;;;;;11.89;100.00;98539.67;4183995;84;28513;-79
2021/05/19 02:25:37;;;;;;;16.65;10.23;;;;;;;11.96;100.00;98541.09;4185365;84;28965;-81
2021/05/19 02:31:40;;;;;;;18.60;9.68;;;;;;;12.04;100.00;98546.59;4196487;83;28547;-81
2021/05/19 02:37:42;;;;;;;15.18;9.28;;;;;;;12.00;100.00;98550.29;4197728;84;28583;-81
2021/05/19 02:43:43;;;;;;;15.65;9.50;;;;;;;12.07;100.00;98551.47;4182579;84;28509;-82
2021/05/19 02:49:46;;;;;;;19.45;10.40;;;;;;;12.04;100.00;98545.80;4180305;84;28587;-83
2021/05/19 02:55:47;;;;;;;18.05;11.15;;;;;;;12.04;100.00;98545.24;4188391;84;28560;-81
2021/05/19 03:01:48;;;;;;;21.33;12.18;;;;;;;11.93;100.00;98538.91;4187001;84;28551;-82
2021/05/19 03:07:50;;;;;;;19.05;12.28;;;;;;;11.97;100.00;98543.23;4183010;84;28586;-81
2021/05/19 03:13:51;;;;;;;20.43;10.75;;;;;;;11.98;100.00;98555.12;4185264;84;28505;-82
2021/05/19 03:19:52;;;;;;;16.55;9.93;;;;;;;12.07;100.00;98560.89;4200235;84;28518;-81
2021/05/19 03:25:54;;;;;;;18.37;10.10;;;;;;;12.22;100.00;98571.03;4195694;84;28504;-80
2021/05/19 03:31:56;;;;;;;19.73;11.53;;;;;;;12.35;100.00;98569.81;4195771;84;28536;-81
2021/05/19 03:37:57;;;;;;;18.40;10.63;;;;;;;12.45;100.00;98572.34;4177428;84;28536;-82
2021/05/19 03:43:59;;;;;;;17.00;9.83;;;;;;;12.46;100.00;98569.40;4182858;84;28580;-82
2021/05/19 03:50:01;;;;;;;18.17;9.55;;;;;;;12.38;100.00;98572.00;4180977;84;28478;-81
2021/05/19 03:56:03;;;;;;;17.55;10.80;;;;;;;12.43;100.00;98577.97;4176066;84;28556;-80
2021/05/19 04:02:04;;;;;;;16.60;11.08;;;;;;;12.58;100.00;98588.09;4191927;84;28587;-81
2021/05/19 04:08:07;;;;;;;15.50;9.93;;;;;;;12.75;100.00;98596.62;4186089;84;28509;-80
2021/05/19 04:14:09;;;;;;;18.20;10.65;;;;;;;12.91;100.00;98593.52;4200711;84;28541;-81
2021/05/19 04:20:12;;;;;;;17.57;11.48;;;;;;;13.16;100.00;98606.39;4185118;84;28523;-81
2021/05/19 04:26:14;;;;;;;16.07;10.50;;;;;;;13.32;100.00;98618.11;4184779;83;28560;-81
2021/05/19 04:32:15;;;;;;;18.45;11.22;;;;;;;13.63;100.00;98621.03;4182529;84;28508;-80
2021/05/19 04:38:17;;;;;;;18.82;12.35;;;;;;;14.01;100.00;98632.31;4195061;84;28644;-81
2021/05/19 04:44:18;;;;;;;15.32;10.18;;;;;;;14.48;100.00;98634.08;4177864;84;28488;-81
2021/05/19 04:50:19;;;;;;;16.85;10.98;;;;;;;14.68;100.00;98637.08;4186106;84;28459;-81
2021/05/19 04:56:20;;;;;;;17.92;11.20;;;;;;;14.43;100.00;98642.19;4188731;84;28522;-83
2021/05/19 05:02:22;;;;;;;19.00;11.80;;;;;;;14.50;100.00;98648.14;4178638;84;28475;-86
2021/05/19 05:08:23;;;;;;;19.67;12.75;;;;;;;13.97;100.00;98662.27;4182405;84;28541;-81
2021/05/19 05:14:25;;;;;;;20.02;12.53;;;;;;;14.30;100.00;98662.42;4187509;84;28529;-80
2021/05/19 05:20:26;;;;;;;27.25;17.45;;;;;;;14.02;100.00;98666.37;4203254;83;28542;-82
2021/05/19 05:26:27;;;;;;;34.30;21.23;;;;;;;13.78;100.00;98668.94;4176495;84;28485;-81
2021/05/19 05:32:29;;;;;;;23.95;15.32;;;;;;;13.57;100.00;98681.48;4192396;84;28552;-77
2021/05/19 05:38:30;;;;;;;28.83;16.55;;;;;;;13.53;100.00;98679.05;4190641;83;28532;-80
2021/05/19 05:44:32;;;;;;;22.93;14.15;;;;;;;13.29;100.00;98678.03;4180577;84;28509;-81
2021/05/19 05:50:33;;;;;;;22.00;13.50;;;;;;;14.00;100.00;98665.80;4164818;84;28509;-81
2021/05/19 05:56:35;;;;;;;20.95;12.45;;;;;;;14.04;100.00;98670.41;4182798;84;28509;-81
2021/05/19 06:02:36;;;;;;;21.07;13.00;;;;;;;13.89;100.00;98671.14;4192533;83;28478;-81
2021/05/19 06:08:38;;;;;;;19.67;11.78;;;;;;;14.35;100.00;98669.74;4175149;84;28544;-81
2021/05/19 06:14:39;;;;;;;22.70;11.88;;;;;;;14.64;100.00;98685.52;4201401;83;28553;-81
2021/05/19 06:20:40;;;;;;;23.02;13.45;;;;;;;14.63;100.00;98685.23;4252873;83;28504;-82
2021/05/19 06:26:42;;;;;;;24.12;14.18;;;;;;;15.32;100.00;98676.97;4250801;83;28502;-81
2021/05/19 06:32:43;;;;;;;25.85;16.62;;;;;;;15.48;100.00;98672.35;4247319;83;28530;-81
2021/05/19 06:38:45;;;;;;;29.92;15.58;;;;;;;15.66;100.00;98672.32;4238104;83;28496;-81
2021/05/19 06:44:47;;;;;;;23.27;13.88;;;;;;;15.68;100.00;98668.00;4198383;84;28543;-81
2021/05/19 06:50:48;;;;;;;19.70;11.95;;;;;;;15.96;100.00;98669.30;4239609;83;28469;-80
2021/05/19 06:56:49;;;;;;;22.67;13.35;;;;;;;15.65;100.00;98672.59;4243388;82;28505;-80
2021/05/19 07:02:51;;;;;;;14.45;9.73;;;;;;;16.06;100.00;98682.56;4253969;83;28505;-82
2021/05/19 07:08:52;;;;;;;18.60;11.25;;;;;;;16.57;100.00;98678.28;4253689;83;28587;-82
2021/05/19 07:15:00;;;;;;;19.05;11.78;;;;;;;16.67;100.00;98682.03;4236799;82;28565;-82
2021/05/19 07:20:57;;;;;;;22.25;13.03;;;;;;;16.46;100.00;98682.13;4194362;84;28629;-80
2021/05/19 07:26:58;;;;;;;14.68;9.85;;;;;;;16.21;100.00;98691.19;4194843;84;28571;-80
2021/05/19 07:33:00;;;;;;;17.17;10.50;;;;;;;16.54;100.00;98691.59;4195278;84;28629;-80
2021/05/19 07:39:02;;;;;;;15.68;9.60;;;;;;;15.86;100.00;98703.19;4192250;84;28545;-80
2021/05/19 07:45:06;;;;;;;11.97;8.40;;;;;;;16.98;96.98;98698.92;4238784;82;28510;-78
2021/05/19 07:51:07;;;;;;;12.50;8.30;;;;;;;16.65;99.05;98699.94;4188515;83;28528;-79
2021/05/19 07:57:14;;;;;;;11.73;7.87;;;;;;;16.92;95.18;98704.67;4191684;84;28596;-77
2021/05/19 08:03:12;;;;;;;12.93;8.43;;;;;;;17.63;86.27;98696.27;4194327;84;28497;-80
2021/05/19 08:09:13;;;;;;;12.82;7.92;;;;;;;17.36;85.91;98698.39;4188401;84;28610;-81
2021/05/19 08:15:15;;;;;;;10.08;7.08;;;;;;;18.00;82.20;98703.50;4190638;83;28555;-81
2021/05/19 08:21:16;;;;;;;10.05;6.97;;;;;;;18.14;80.22;98701.77;4196153;84;28508;-83
2021/05/19 08:27:18;;;;;;;10.38;7.17;;;;;;;18.18;76.31;98702.00;4186822;83;28531;-83
2021/05/19 08:33:19;;;;;;;9.43;6.90;;;;;;;18.54;74.14;98698.82;4178813;84;28495;-84
2021/05/19 08:39:20;;;;;;;11.35;8.08;;;;;;;18.59;72.44;98695.22;4176345;84;28480;-82
2021/05/19 08:45:21;;;;;;;9.75;6.83;;;;;;;18.58;76.36;98690.88;4174296;84;28495;-82
2021/05/19 08:51:23;;;;;;;10.43;7.35;;;;;;;18.04;76.58;98689.08;4182720;84;28516;-84
2021/05/19 08:57:24;;;;;;;8.43;6.53;;;;;;;18.33;76.38;98691.48;4182239;84;28587;-85
2021/05/19 09:03:26;;;;;;;11.48;6.95;;;;;;;18.08;75.45;98685.23;4193264;84;28493;-86
2021/05/19 09:09:37;;;;;;;9.85;6.70;;;;;;;18.23;77.63;98686.96;4188399;84;28542;-80
2021/05/19 09:15:49;;;;;;;10.30;7.20;;;;;;;18.45;72.78;98689.68;4196200;84;28498;-79
2021/05/19 09:21:52;;;;;;;11.63;6.72;;;;;;;18.46;73.55;98683.13;4191374;83;28623;-79
2021/05/19 09:27:57;;;;;;;10.10;6.62;;;;;;;19.14;62.73;98683.02;4178930;83;28497;-79
2021/05/19 09:33:59;;;;;;;10.80;7.90;;;;;;;18.83;67.03;98681.55;4180772;83;28518;-77
2021/05/19 09:40:08;;;;;;;10.50;7.72;;;;;;;18.22;64.78;98688.06;4178717;83;28552;-78
2021/05/19 09:46:16;;;;;;;9.48;7.47;;;;;;;18.44;66.99;98679.36;4182485;83;28579;-79
2021/05/19 09:52:17;;;;;;;11.38;7.97;;;;;;;18.84;65.94;98673.63;4194637;83;28568;-78
2021/05/19 09:58:42;;;;;;;11.48;6.92;;;;;;;19.19;62.83;98669.33;4206209;83;28943;-80
2021/05/19 10:04:48;;;;;;;11.25;8.18;;;;;;;18.22;61.90;98673.09;4183281;83;28520;-78
2021/05/19 10:10:47;;;;;;;11.75;9.00;;;;;;;18.62;64.10;98654.61;4189282;83;28491;-78
2021/05/19 10:16:58;;;;;;;11.90;8.03;;;;;;;18.11;63.43;98651.99;4183006;83;28525;-78
2021/05/19 10:23:01;;;;;;;9.53;7.28;;;;;;;18.43;61.15;98640.18;4191570;84;28551;-78
2021/05/19 10:29:02;;;;;;;6.37;4.80;;;;;;;19.07;57.38;98632.99;4193702;84;28571;-80
2021/05/19 10:35:08;;;;;;;5.55;4.15;;;;;;;18.23;52.71;98639.34;4183757;84;28506;-76
2021/05/19 10:41:09;;;;;;;6.93;5.60;;;;;;;18.36;53.43;98638.62;4185464;84;28561;-78
2021/05/19 10:47:16;;;;;;;6.00;5.33;;;;;;;18.80;56.55;98634.49;4164716;84;28582;-77
2021/05/19 11:00:16;;;;;;;6.47;4.78;;;;;;;18.95;55.87;98631.52;4186496;84;28567;-77
2021/05/19 11:06:17;;;;;;;5.62;4.28;;;;;;;19.19;55.61;98629.81;4191502;84;28548;-79
2021/05/19 11:12:26;;;;;;;5.70;3.87;;;;;;;19.58;54.08;98627.77;4247483;83;28603;-78
2021/05/19 11:24:58;;;;;;;8.08;2.90;;;;;;;19.37;50.09;98625.41;4221845;82;28559;-78
2021/05/19 11:31:13;;;;;;;7.42;3.00;;;;;;;19.48;50.63;98630.93;4187358;83;28557;-80
2021/05/19 11:37:19;;;;;;;3.45;2.62;;;;;;;18.51;55.14;98619.12;4190377;84;28529;-80
2021/05/19 11:43:21;;;;;;;3.67;2.40;;;;;;;19.34;52.55;98609.66;4185692;84;28590;-81
2021/05/19 11:49:22;;;;;;;4.50;2.15;;;;;;;19.68;47.01;98608.48;4192603;84;28597;-80
2021/05/19 11:55:37;;;;;;;2.52;1.90;;;;;;;20.04;47.00;98615.97;4186238;84;28481;-79
2021/05/19 12:01:38;;;;;;;2.90;2.30;;;;;;;19.32;49.36;98617.34;4189257;84;28591;-79
2021/05/19 12:07:40;;;;;;;3.62;2.10;;;;;;;19.41;49.02;98607.33;4183385;84;28620;-77
2021/05/19 12:14:00;;;;;;;3.62;1.87;;;;;;;20.27;47.47;98608.42;4192012;84;28568;-78
2021/05/19 12:20:00;;;;;;;2.87;1.82;;;;;;;20.59;44.50;98604.70;4194708;84;28694;-78
2021/05/19 12:26:02;;;;;;;3.22;2.12;;;;;;;21.02;45.73;98594.44;4181255;84;28611;-77
2021/05/19 12:32:20;;;;;;;3.62;2.33;;;;;;;21.17;44.11;98594.03;4195077;83;28517;-82
2021/05/19 12:38:25;;;;;;;3.72;3.00;;;;;;;21.42;43.34;98598.61;4188001;83;28571;-80
2021/05/19 12:44:32;;;;;;;4.55;3.10;;;;;;;21.61;43.22;98596.75;4194122;84;28634;-81
2021/05/19 12:50:58;;;;;;;4.35;2.80;;;;;;;22.12;44.61;98583.55;4185348;84;28496;-79
2021/05/19 12:57:11;;;;;;;3.20;2.40;;;;;;;22.40;42.49;98582.72;4196334;84;28497;-81
2021/05/19 13:03:12;;;;;;;2.75;1.98;;;;;;;21.95;41.37;98585.14;4186146;84;28497;-81
2021/05/19 13:09:19;;;;;;;4.50;3.27;;;;;;;21.44;42.39;98592.80;4183630;84;28510;-81
2021/05/19 13:15:35;;;;;;;5.78;2.60;;;;;;;21.13;48.30;98597.16;4199006;84;28548;-81
2021/05/19 13:21:47;;;;;;;2.58;2.15;;;;;;;20.33;52.55;98616.19;4251313;82;28539;-81
2021/05/19 13:27:50;;;;;;;3.47;2.05;;;;;;;19.15;54.47;98604.25;4272995;82;28581;-78
2021/05/19 13:39:57;;;;;;;3.20;2.10;;;;;;;18.29;59.70;98617.78;4261942;82;28560;-82
2021/05/19 13:46:00;;;;;;;4.25;2.00;;;;;;;18.73;59.26;98617.14;4271845;82;28587;-82
2021/05/19 13:52:08;;;;;;;2.85;2.08;;;;;;;18.49;66.37;98613.16;4269391;82;28489;-83
2021/05/19 13:58:11;;;;;;;2.17;1.67;;;;;;;18.45;68.82;98612.11;4272427;82;28536;-83
2021/05/19 14:04:15;;;;;;;3.87;2.20;;;;;;;19.27;64.81;98610.06;4268445;82;28542;-82
2021/05/19 14:10:19;;;;;;;2.80;2.10;;;;;;;19.53;61.94;98606.06;4271279;82;28500;-83
2021/05/19 14:16:49;;;;;;;4.55;2.10;;;;;;;19.04;61.20;98613.16;4264882;82;28528;-83
2021/05/19 14:28:53;;;;;;;3.25;1.77;;;;;;;20.22;59.94;98605.81;4268555;82;28607;-85
2021/05/19 14:34:59;;;;;;;2.72;1.70;;;;;;;20.73;55.30;98596.47;4261504;82;28615;-80
2021/05/19 14:48:29;;;;;;;2.62;2.00;;;;;;;20.35;53.16;98596.78;4262643;82;28579;-80
2021/05/19 15:00:00;;;;;;;3.08;1.57;;;;;;;19.23;55.79;98612.57;4268862;82;28566;-79
2021/05/19 15:06:01;;;;;;;8.20;3.45;;;;;;;19.42;56.26;98618.52;4257454;82;28523;-79
2021/05/19 15:12:04;;;;;;;5.62;3.22;;;;;;;19.12;66.95;98629.37;4258103;82;28555;-78
2021/05/19 15:18:05;;;;;;;6.92;4.00;;;;;;;18.64;73.87;98639.33;4258495;82;28519;-79
2021/05/19 15:24:08;;;;;;;6.20;3.50;;;;;;;19.03;81.88;98627.90;4198265;84;28521;-78
2021/05/19 15:30:11;;;;;;;6.55;3.67;;;;;;;19.14;74.26;98633.97;4195291;83;28544;-81
2021/05/19 15:36:13;;;;;;;6.28;3.33;;;;;;;19.02;74.27;98642.63;4191747;84;28509;-79
2021/05/19 15:42:15;;;;;;;8.33;3.20;;;;;;;19.26;72.15;98638.39;4183929;84;28564;-77
2021/05/19 15:48:16;;;;;;;5.30;3.25;;;;;;;19.29;76.51;98631.55;4189591;84;28544;-79
2021/05/19 15:54:18;;;;;;;5.70;3.85;;;;;;;19.25;78.64;98624.52;4187970;84;28501;-77
2021/05/19 16:00:22;;;;;;;5.72;3.72;;;;;;;19.22;78.23;98630.03;4200292;84;28555;-76
2021/05/19 16:06:23;;;;;;;6.12;3.67;;;;;;;19.17;77.50;98638.84;4239519;83;28584;-76
2021/05/19 16:12:26;;;;;;;7.28;3.52;;;;;;;19.18;78.11;98637.16;4227842;82;28580;-77
2021/05/19 16:18:27;;;;;;;7.22;3.45;;;;;;;18.91;81.10;98640.58;4188619;84;28582;-77
2021/05/19 16:24:31;;;;;;;4.97;3.20;;;;;;;19.02;83.33;98643.99;4162654;85;28541;-77
2021/05/19 16:31:14;;;;;;;4.78;3.50;;;;;;;18.62;81.77;98649.17;4183788;83;28498;-78
2021/05/19 16:37:15;;;;;;;6.20;3.17;;;;;;;18.53;79.01;98660.45;4175712;83;28505;-80
2021/05/19 16:43:16;;;;;;;4.92;1.87;;;;;;;17.37;94.45;98678.28;4186388;83;28491;-79
2021/05/19 16:49:19;;;;;;;6.20;1.95;;;;;;;16.78;96.96;98678.69;4184167;83;28541;-78
2021/05/19 16:55:20;;;;;;;6.40;2.10;;;;;;;17.03;98.35;98668.80;4233936;82;28585;-78
2021/05/19 17:01:34;;;;;;;5.30;2.15;;;;;;;17.20;98.08;98662.39;4195330;83;28548;-78
2021/05/19 17:07:27;;;;;;;5.75;2.30;;;;;;;17.42;100.00;98666.02;4184554;83;28608;-78
2021/05/19 17:13:29;;;;;;;5.30;2.12;;;;;;;17.21;100.00;98662.66;4176305;84;28611;-77
2021/05/19 17:19:32;;;;;;;3.37;2.10;;;;;;;17.62;100.00;98656.59;4193655;84;28572;-77
2021/05/19 17:25:33;;;;;;;3.10;2.08;;;;;;;17.60;100.00;98671.02;4186965;84;28494;-78
2021/05/19 17:31:35;;;;;;;2.87;1.98;;;;;;;17.23;100.00;98671.89;4185728;84;28509;-78
2021/05/19 17:37:37;;;;;;;2.55;2.02;;;;;;;17.11;100.00;98666.81;4185641;84;28549;-78
2021/05/19 17:43:38;;;;;;;3.50;2.00;;;;;;;16.49;100.00;98668.53;4204097;84;28496;-78
2021/05/19 17:49:40;;;;;;;3.20;1.80;;;;;;;16.43;100.00;98664.50;4184874;84;28499;-77
2021/05/19 17:55:41;;;;;;;3.58;2.30;;;;;;;16.78;100.00;98663.76;4193339;84;28510;-77
2021/05/19 18:01:44;;;;;;;4.12;2.42;;;;;;;16.36;100.00;98663.20;4187995;84;28569;-77
2021/05/19 18:07:46;;;;;;;6.28;2.70;;;;;;;16.43;100.00;98667.22;4198101;84;28489;-77
2021/05/19 18:13:47;;;;;;;5.03;2.27;;;;;;;16.47;100.00;98660.69;4182449;84;28714;-78
2021/05/19 18:19:50;;;;;;;5.33;2.42;;;;;;;16.26;100.00;98667.57;4191584;82;28619;-75
2021/05/19 18:25:52;;;;;;;6.80;3.30;;;;;;;16.27;100.00;98673.27;4262905;82;28554;-79
2021/05/19 18:32:06;;;;;;;5.45;3.10;;;;;;;16.03;100.00;98679.30;4262748;82;28482;-77
2021/05/19 18:38:01;;;;;;;4.40;3.23;;;;;;;15.95;100.00;98683.95;4269448;82;28497;-78
2021/05/19 18:44:03;;;;;;;5.97;3.58;;;;;;;16.10;100.00;98694.47;4266635;82;28555;-80
2021/05/19 18:50:05;;;;;;;9.28;3.52;;;;;;;15.78;100.00;98701.85;4265197;82;28535;-80
2021/05/19 18:56:07;;;;;;;6.85;3.62;;;;;;;15.69;100.00;98712.41;4270100;82;28518;-80
2021/05/19 19:02:08;;;;;;;6.10;3.50;;;;;;;15.80;100.00;98708.34;4265596;82;28578;-80
2021/05/19 19:08:09;;;;;;;5.92;3.75;;;;;;;15.73;100.00;98712.16;4263289;82;28532;-77
2021/05/19 19:14:13;;;;;;;7.00;3.80;;;;;;;15.39;100.00;98709.20;4263683;82;28519;-84
2021/05/19 19:20:17;;;;;;;9.80;4.62;;;;;;;15.42;100.00;98715.42;4275751;82;28571;-78
2021/05/19 19:26:18;;;;;;;11.57;5.92;;;;;;;15.29;100.00;98726.23;4253721;82;28500;-81
2021/05/19 19:32:20;;;;;;;7.75;4.40;;;;;;;15.21;100.00;98731.66;4263468;82;28514;-84
2021/05/19 19:38:21;;;;;;;8.53;4.90;;;;;;;15.04;100.00;98731.35;4260643;82;28577;-81
2021/05/19 19:44:29;;;;;;;8.03;5.05;;;;;;;14.64;100.00;98727.46;4266444;82;28571;-79
2021/05/19 19:50:28;;;;;;;7.70;4.85;;;;;;;14.48;100.00;98735.50;4269903;82;28489;-81
2021/05/19 19:56:29;;;;;;;8.95;5.72;;;;;;;14.44;100.00;98747.94;4272021;82;28565;-81
2021/05/19 20:02:34;;;;;;;10.10;6.03;;;;;;;14.67;100.00;98744.51;4271366;82;28532;-84
2021/05/19 20:08:34;;;;;;;11.68;6.47;;;;;;;14.81;100.00;98740.80;4275399;82;28502;-83
2021/05/19 20:14:35;;;;;;;11.50;6.28;;;;;;;14.58;100.00;98745.56;4269097;82;28478;-83
2021/05/19 20:20:37;;;;;;;12.25;6.85;;;;;;;14.40;100.00;98744.67;4239995;82;28525;-89
2021/05/19 20:26:39;;;;;;;12.90;7.28;;;;;;;14.02;100.00;98746.10;4182942;84;28588;-82
2021/05/19 20:32:40;;;;;;;15.20;7.55;;;;;;;14.23;100.00;98748.37;4199620;83;28533;-84
2021/05/19 20:38:42;;;;;;;12.35;6.60;;;;;;;14.04;100.00;98743.95;4184964;83;28485;-82
2021/05/19 20:44:43;;;;;;;13.00;6.47;;;;;;;13.83;100.00;98741.64;4156526;84;28502;-82
2021/05/19 20:50:45;;;;;;;12.00;6.05;;;;;;;13.81;100.00;98747.31;4342750;80;28483;-83
2021/05/19 20:56:46;;;;;;;12.43;6.03;;;;;;;13.78;100.00;98753.22;4159719;84;28557;-82
2021/05/19 21:02:47;;;;;;;11.33;6.95;;;;;;;13.80;100.00;98757.30;4230362;82;28548;-81
2021/05/19 21:08:52;;;;;;;14.33;7.30;;;;;;;13.60;100.00;98757.97;4176019;83;28505;-78
2021/05/19 21:14:54;;;;;;;10.55;6.90;;;;;;;13.29;100.00;98762.25;4184999;83;28504;-80
2021/05/19 21:20:57;;;;;;;13.08;8.25;;;;;;;13.29;100.00;98761.73;4186707;83;28558;-81
2021/05/19 21:26:59;;;;;;;14.73;7.80;;;;;;;13.56;100.00;98764.94;4185270;84;28558;-83
2021/05/19 21:33:01;;;;;;;13.43;8.25;;;;;;;13.45;100.00;98760.01;4176308;84;28576;-81
2021/05/19 21:39:05;;;;;;;13.90;7.75;;;;;;;13.15;100.00;98761.84;4183852;84;28509;-81
2021/05/19 21:45:08;;;;;;;16.25;8.85;;;;;;;13.48;100.00;98766.23;4240110;83;28510;-81
2021/05/19 21:51:09;;;;;;;17.02;9.55;;;;;;;13.44;100.00;98769.19;4188002;83;28506;-81
2021/05/19 21:57:11;;;;;;;14.43;8.63;;;;;;;13.33;100.00;98757.44;4182238;84;28543;-81
2021/05/19 22:03:14;;;;;;;14.45;8.50;;;;;;;13.34;100.00;98755.01;4188766;84;28487;-82
2021/05/19 22:09:15;;;;;;;17.02;9.50;;;;;;;13.42;100.00;98764.52;4189390;83;28491;-81
2021/05/19 22:15:18;;;;;;;16.15;9.55;;;;;;;13.58;100.00;98762.00;4181035;84;28501;-81
2021/05/19 22:27:30;;;;;;;15.05;9.18;;;;;;;13.38;100.00;98761.55;4186114;84;28489;-80
2021/05/19 22:33:32;;;;;;;16.07;9.43;;;;;;;13.45;100.00;98756.48;4186891;84;28582;-79
2021/05/19 22:39:33;;;;;;;14.13;9.90;;;;;;;13.39;100.00;98763.17;4187928;84;28486;-79
2021/05/19 22:45:35;;;;;;;22.30;10.40;;;;;;;13.60;100.00;98770.12;4188446;84;28520;-79
2021/05/19 22:51:38;;;;;;;18.37;10.75;;;;;;;13.50;100.00;98764.09;4197058;83;28592;-79
2021/05/19 22:57:40;;;;;;;19.77;10.95;;;;;;;13.55;100.00;98776.02;4177697;84;28487;-78
2021/05/19 23:03:43;;;;;;;16.00;9.45;;;;;;;13.40;100.00;98763.97;4185937;84;28488;-79
2021/05/19 23:09:47;;;;;;;17.17;10.50;;;;;;;13.45;100.00;98767.28;4191646;84;28513;-79
2021/05/19 23:15:48;;;;;;;18.30;10.93;;;;;;;13.63;100.00;98764.20;4187763;84;28512;-78
2021/05/19 23:21:50;;;;;;;19.05;10.28;;;;;;;13.87;100.00;98767.88;4195558;84;28537;-78
2021/05/19 23:27:51;;;;;;;16.27;9.63;;;;;;;13.76;100.00;98767.53;4190383;84;28543;-78
2021/05/19 23:33:52;;;;;;;16.52;10.88;;;;;;;13.97;100.00;98764.45;4186894;84;28598;-78
2021/05/19 23:39:54;;;;;;;17.85;10.40;;;;;;;13.59;100.00;98768.50;4187597;83;28569;-78
2021/05/19 23:45:55;;;;;;;19.10;10.53;;;;;;;13.41;100.00;98770.20;4190305;84;28601;-78
2021/05/19 23:51:57;;;;;;;19.30;9.43;;;;;;;13.32;100.00;98767.95;4193248;84;28502;-78
2021/05/19 23:57:59;;;;;;;14.73;9.10;;;;;;;13.55;100.00;98766.02;4181903;84;28572;-78
